createdAt,value
2019-01-22T00:00:04.900Z,0.97
2019-01-22T00:01:08.991Z,0.98
2019-01-22T00:02:12.576Z,0.96
2019-01-22T00:03:16.261Z,1.06
2019-01-22T00:04:19.738Z,0.97
2019-01-22T00:05:23.349Z,1.00
2019-01-22T00:06:26.937Z,1.04
2019-01-22T00:07:30.436Z,1.07
2019-01-22T00:08:33.873Z,1.09
2019-01-22T00:09:37.413Z,1.10
2019-01-22T00:10:42.324Z,1.06
2019-01-22T00:11:46.014Z,1.04
2019-01-22T00:12:49.833Z,1.04
2019-01-22T00:13:53.336Z,1.00
2019-01-22T00:14:56.780Z,1.05
2019-01-22T00:16:00.351Z,1.14
2019-01-22T00:17:03.784Z,1.17
2019-01-22T00:18:07.305Z,1.17
2019-01-22T00:19:10.910Z,1.17
2019-01-22T00:20:15.677Z,1.15
2019-01-22T00:21:19.219Z,1.04
2019-01-22T00:22:22.735Z,0.99
2019-01-22T00:23:26.220Z,1.01
2019-01-22T00:24:29.715Z,1.01
2019-01-22T00:25:33.225Z,0.95
2019-01-22T00:26:36.868Z,0.99
2019-01-22T00:27:40.580Z,0.96
2019-01-22T00:28:44.195Z,0.95
2019-01-22T00:29:47.713Z,0.94
2019-01-22T00:30:51.146Z,0.95
2019-01-22T00:31:55.114Z,1.02
2019-01-22T00:32:58.602Z,0.99
2019-01-22T00:34:02.098Z,0.99
2019-01-22T00:35:06.275Z,0.97
2019-01-22T00:36:09.776Z,0.92
2019-01-22T00:37:13.274Z,0.88
2019-01-22T00:38:16.803Z,0.81
2019-01-22T00:39:20.303Z,0.63
2019-01-22T00:40:23.817Z,0.58
2019-01-22T00:41:27.312Z,0.47
2019-01-22T00:42:30.815Z,0.53
2019-01-22T00:43:34.553Z,0.52
2019-01-22T00:44:38.217Z,0.50
2019-01-22T00:45:41.716Z,0.53
2019-01-22T00:46:45.151Z,0.57
2019-01-22T00:47:48.590Z,0.62
2019-01-22T00:48:52.041Z,0.63
2019-01-22T00:49:55.486Z,0.65
2019-01-22T00:50:58.943Z,0.55
2019-01-22T00:52:02.386Z,0.54
2019-01-22T00:53:09.914Z,0.58
2019-01-22T00:54:11.081Z,0.55
2019-01-22T00:55:18.996Z,0.56
2019-01-22T00:56:22.491Z,0.59
2019-01-22T00:57:25.920Z,0.54
2019-01-22T00:58:29.352Z,0.54
2019-01-22T00:59:33.571Z,0.61
2019-01-22T01:00:37.479Z,0.65
2019-01-22T01:01:40.974Z,0.68
2019-01-22T01:02:44.554Z,0.69
2019-01-22T01:03:48.075Z,0.64
2019-01-22T01:04:51.588Z,0.64
2019-01-22T01:05:55.085Z,0.66
2019-01-22T01:06:58.739Z,0.62
2019-01-22T01:08:02.253Z,0.64
2019-01-22T01:09:07.862Z,0.71
2019-01-22T01:10:13.266Z,0.73
2019-01-22T01:11:16.770Z,0.73
2019-01-22T01:12:20.285Z,0.81
2019-01-22T01:13:23.946Z,0.77
2019-01-22T01:14:27.541Z,0.80
2019-01-22T01:15:31.224Z,0.79
2019-01-22T01:16:35.038Z,0.78
2019-01-22T01:17:38.560Z,0.76
2019-01-22T01:18:42.159Z,0.73
2019-01-22T01:19:45.750Z,0.72
2019-01-22T01:20:49.258Z,0.78
2019-01-22T01:21:52.697Z,0.82
2019-01-22T01:22:56.245Z,0.85
2019-01-22T01:23:59.828Z,0.90
2019-01-22T01:25:03.538Z,0.88
2019-01-22T01:26:06.976Z,0.84
2019-01-22T01:27:10.650Z,0.82
2019-01-22T01:28:14.091Z,0.83
2019-01-22T01:29:17.555Z,0.75
2019-01-22T01:30:23.223Z,0.78
2019-01-22T01:31:27.187Z,0.80
2019-01-22T01:32:30.698Z,0.76
2019-01-22T01:33:34.181Z,0.84
2019-01-22T01:34:37.719Z,0.84
2019-01-22T01:35:41.189Z,0.79
2019-01-22T01:36:44.731Z,0.80
2019-01-22T01:37:48.233Z,0.66
2019-01-22T01:38:51.700Z,0.57
2019-01-22T01:39:55.164Z,0.52
2019-01-22T01:40:58.598Z,0.50
2019-01-22T01:42:02.202Z,0.55
2019-01-22T01:43:05.786Z,0.54
2019-01-22T01:44:09.381Z,0.56
2019-01-22T01:45:13.059Z,0.54
2019-01-22T01:46:16.883Z,0.52
2019-01-22T01:47:20.405Z,0.47
2019-01-22T01:48:23.911Z,0.24
2019-01-22T01:49:27.389Z,0.25
2019-01-22T01:50:30.890Z,0.29
2019-01-22T01:51:34.400Z,0.23
2019-01-22T01:52:37.919Z,0.12
2019-01-22T01:53:41.529Z,-0.11
2019-01-22T01:54:45.149Z,-0.11
2019-01-22T01:55:48.745Z,0.00
2019-01-22T01:56:52.276Z,0.06
2019-01-22T01:57:55.805Z,0.14
2019-01-22T01:58:59.335Z,0.16
2019-01-22T02:00:03.007Z,0.22
2019-01-22T02:01:06.742Z,0.29
2019-01-22T02:02:13.168Z,0.23
2019-01-22T02:03:16.668Z,0.12
2019-01-22T02:04:20.132Z,0.12
2019-01-22T02:05:25.196Z,0.19
2019-01-22T02:06:28.717Z,0.20
2019-01-22T02:07:32.433Z,0.19
2019-01-22T02:08:35.842Z,0.23
2019-01-22T02:09:39.379Z,0.15
2019-01-22T02:10:42.957Z,0.21
2019-01-22T02:11:46.409Z,0.15
2019-01-22T02:12:55.692Z,0.20
2019-01-22T02:13:59.274Z,0.25
2019-01-22T02:15:02.961Z,0.25
2019-01-22T02:16:21.179Z,0.13
2019-01-22T02:17:39.592Z,0.08
2019-01-22T02:18:48.810Z,0.13
2019-01-22T02:19:58.201Z,0.22
2019-01-22T02:21:22.561Z,0.28
2019-01-22T02:22:34.922Z,0.31
2019-01-22T02:23:43.954Z,0.32
2019-01-22T02:24:53.088Z,0.36
2019-01-22T02:26:19.831Z,0.32
2019-01-22T02:27:32.340Z,0.25
2019-01-22T02:28:54.889Z,0.15
2019-01-22T02:30:17.365Z,0.20
2019-01-22T02:31:23.869Z,0.19
2019-01-22T02:32:30.382Z,0.18
2019-01-22T02:33:36.876Z,0.24
2019-01-22T02:34:52.098Z,0.16
2019-01-22T02:36:01.224Z,0.16
2019-01-22T02:37:37.513Z,0.16
2019-01-22T02:38:55.633Z,0.17
2019-01-22T02:40:07.649Z,0.23
2019-01-22T02:41:16.893Z,0.35
2019-01-22T02:42:28.986Z,0.34
2019-01-22T02:43:53.109Z,0.40
2019-01-22T02:45:18.506Z,0.48
2019-01-22T02:46:54.848Z,0.50
2019-01-22T02:48:01.327Z,0.51
2019-01-22T02:49:25.743Z,0.54
2019-01-22T02:50:40.689Z,0.54
2019-01-22T02:51:52.679Z,0.59
2019-01-22T02:52:59.204Z,0.60
2019-01-22T02:54:06.039Z,0.51
2019-01-22T02:55:18.026Z,0.28
2019-01-22T02:56:27.409Z,0.20
2019-01-22T02:57:48.647Z,0.19
2019-01-22T02:59:01.060Z,0.14
2019-01-22T03:00:29.857Z,0.12
2019-01-22T03:02:07.800Z,0.15
2019-01-22T03:03:35.118Z,0.24
2019-01-22T03:04:41.629Z,0.29
2019-01-22T03:06:12.245Z,0.34
2019-01-22T03:07:33.857Z,0.32
2019-01-22T03:08:59.850Z,0.30
2019-01-22T03:10:15.102Z,0.32
2019-01-22T03:11:37.980Z,0.32
2019-01-22T03:12:44.526Z,0.33
2019-01-22T03:14:07.122Z,0.34
2019-01-22T03:15:41.989Z,0.37
2019-01-22T03:16:48.518Z,0.38
2019-01-22T03:18:15.614Z,0.41
2019-01-22T03:19:33.771Z,0.46
2019-01-22T03:20:49.194Z,0.51
2019-01-22T03:21:55.923Z,0.55
2019-01-22T03:23:08.489Z,0.54
2019-01-22T03:24:37.256Z,0.55
2019-01-22T03:25:46.546Z,0.58
2019-01-22T03:27:08.186Z,0.60
2019-01-22T03:28:23.546Z,0.61
2019-01-22T03:29:44.959Z,0.63
2019-01-22T03:30:51.489Z,0.62
2019-01-22T03:32:15.640Z,0.55
2019-01-22T03:33:22.116Z,0.47
2019-01-22T03:34:31.205Z,0.43
2019-01-22T03:35:46.803Z,0.45
2019-01-22T03:37:23.161Z,0.48
2019-01-22T03:38:44.305Z,0.49
2019-01-22T03:39:50.804Z,0.50
2019-01-22T03:41:22.684Z,0.46
2019-01-22T03:42:34.996Z,0.46
2019-01-22T03:43:57.715Z,0.47
2019-01-22T03:45:16.072Z,0.45
2019-01-22T03:46:22.573Z,0.43
2019-01-22T03:47:53.098Z,0.43
2019-01-22T03:49:08.313Z,0.40
2019-01-22T03:50:32.942Z,0.36
2019-01-22T03:51:39.459Z,0.38
2019-01-22T03:52:45.959Z,0.41
2019-01-22T03:54:20.831Z,0.45
2019-01-22T03:55:45.315Z,0.46
2019-01-22T03:57:09.779Z,0.49
2019-01-22T03:58:13.292Z,0.52
2019-01-22T03:59:16.858Z,0.46
2019-01-22T04:00:22.318Z,0.40
2019-01-22T04:01:25.923Z,0.36
2019-01-22T04:02:30.514Z,0.38
2019-01-22T04:03:34.103Z,0.39
2019-01-22T04:04:37.535Z,0.42
2019-01-22T04:05:40.977Z,0.40
2019-01-22T04:06:45.030Z,0.40
2019-01-22T04:07:48.619Z,0.41
2019-01-22T04:08:53.612Z,0.42
2019-01-22T04:09:58.992Z,0.43
2019-01-22T04:11:04.282Z,0.44
2019-01-22T04:12:07.818Z,0.50
2019-01-22T04:13:11.440Z,0.50
2019-01-22T04:14:14.959Z,0.53
2019-01-22T04:15:21.519Z,0.45
2019-01-22T04:16:25.312Z,0.41
2019-01-22T04:17:28.953Z,0.35
2019-01-22T04:18:32.565Z,0.34
2019-01-22T04:19:36.142Z,0.37
2019-01-22T04:20:39.648Z,0.42
2019-01-22T04:21:43.228Z,0.41
2019-01-22T04:22:48.251Z,0.44
2019-01-22T04:24:01.454Z,0.49
2019-01-22T04:25:05.788Z,0.53
2019-01-22T04:26:28.695Z,0.54
2019-01-22T04:27:37.904Z,0.58
2019-01-22T04:29:09.685Z,0.62
2019-01-22T04:30:27.847Z,0.63
2019-01-22T04:31:37.012Z,0.66
2019-01-22T04:32:43.548Z,0.62
2019-01-22T04:34:12.149Z,0.61
2019-01-22T04:35:39.682Z,0.61
2019-01-22T04:36:58.195Z,0.59
2019-01-22T04:38:04.709Z,0.62
2019-01-22T04:39:16.815Z,0.55
2019-01-22T04:40:23.312Z,0.53
2019-01-22T04:41:48.806Z,0.52
2019-01-22T04:43:20.704Z,0.54
2019-01-22T04:44:47.480Z,0.56
2019-01-22T04:45:53.972Z,0.60
2019-01-22T04:47:12.544Z,0.63
2019-01-22T04:48:27.230Z,0.55
2019-01-22T04:49:33.801Z,0.50
2019-01-22T04:50:46.125Z,0.48
2019-01-22T04:51:55.594Z,0.52
2019-01-22T04:53:20.166Z,0.50
2019-01-22T04:54:32.466Z,0.47
2019-01-22T04:56:10.590Z,0.52
2019-01-22T04:57:25.835Z,0.50
2019-01-22T04:58:38.182Z,0.55
2019-01-22T04:59:44.689Z,0.59
2019-01-22T05:01:02.920Z,0.52
2019-01-22T05:02:18.119Z,0.43
2019-01-22T05:03:27.534Z,0.43
2019-01-22T05:04:36.725Z,0.43
2019-01-22T05:05:48.660Z,0.43
2019-01-22T05:07:15.650Z,0.41
2019-01-22T05:08:40.460Z,0.42
2019-01-22T05:10:03.156Z,0.42
2019-01-22T05:11:15.090Z,0.20
2019-01-22T05:12:33.674Z,0.08
2019-01-22T05:13:48.844Z,0.07
2019-01-22T05:15:17.311Z,0.09
2019-01-22T05:16:29.196Z,0.09
2019-01-22T05:17:41.471Z,0.20
2019-01-22T05:18:59.652Z,0.27
2019-01-22T05:20:06.138Z,0.32
2019-01-22T05:21:36.468Z,0.35
2019-01-22T05:22:45.710Z,0.32
2019-01-22T05:24:00.787Z,0.33
2019-01-22T05:25:10.048Z,0.25
2019-01-22T05:26:19.260Z,0.30
2019-01-22T05:27:34.310Z,0.33
2019-01-22T05:28:52.659Z,0.31
2019-01-22T05:30:13.108Z,0.28
2019-01-22T05:31:40.219Z,0.30
2019-01-22T05:32:52.415Z,0.34
2019-01-22T05:33:58.914Z,0.27
2019-01-22T05:35:17.112Z,0.32
2019-01-22T05:36:38.503Z,0.32
2019-01-22T05:37:59.548Z,0.35
2019-01-22T05:39:14.328Z,0.37
2019-01-22T05:40:37.196Z,0.42
2019-01-22T05:42:01.617Z,0.47
2019-01-22T05:43:13.362Z,0.46
2019-01-22T05:44:34.611Z,0.47
2019-01-22T05:46:00.365Z,0.46
2019-01-22T05:47:12.539Z,0.52
2019-01-22T05:48:19.006Z,0.54
2019-01-22T05:49:40.114Z,0.55
2019-01-22T05:50:49.465Z,0.54
2019-01-22T05:52:07.746Z,0.56
2019-01-22T05:53:25.878Z,0.54
2019-01-22T05:54:32.403Z,0.54
2019-01-22T05:55:53.605Z,0.43
2019-01-22T05:57:00.087Z,0.34
2019-01-22T05:58:37.777Z,0.33
2019-01-22T05:59:59.032Z,0.30
2019-01-22T06:01:05.650Z,0.35
2019-01-22T06:02:12.165Z,0.36
2019-01-22T06:03:27.743Z,0.36
2019-01-22T06:04:49.033Z,0.31
2019-01-22T06:05:59.837Z,0.32
2019-01-22T06:07:09.181Z,0.33
2019-01-22T06:08:33.555Z,0.29
2019-01-22T06:09:48.880Z,0.25
2019-01-22T06:10:55.378Z,0.26
2019-01-22T06:12:16.779Z,0.29
2019-01-22T06:13:28.972Z,0.30
2019-01-22T06:14:41.272Z,0.30
2019-01-22T06:15:47.822Z,0.31
2019-01-22T06:17:13.471Z,0.29
2019-01-22T06:18:20.046Z,0.24
2019-01-22T06:19:35.252Z,0.24
2019-01-22T06:20:59.527Z,0.22
2019-01-22T06:22:22.324Z,0.21
2019-01-22T06:23:46.570Z,0.19
2019-01-22T06:24:55.899Z,0.18
2019-01-22T06:26:11.054Z,0.20
2019-01-22T06:27:20.126Z,0.25
2019-01-22T06:28:35.143Z,0.27
2019-01-22T06:30:00.905Z,0.28
2019-01-22T06:31:22.629Z,0.28
2019-01-22T06:32:31.938Z,0.30
2019-01-22T06:33:38.434Z,0.31
2019-01-22T06:34:44.914Z,0.29
2019-01-22T06:36:09.382Z,0.27
2019-01-22T06:37:15.879Z,0.25
2019-01-22T06:38:22.373Z,0.30
2019-01-22T06:39:31.865Z,0.33
2019-01-22T06:40:54.546Z,0.30
2019-01-22T06:42:25.258Z,0.28
2019-01-22T06:43:31.813Z,0.28
2019-01-22T06:44:44.126Z,0.34
2019-01-22T06:45:50.660Z,0.30
2019-01-22T06:47:12.049Z,0.27
2019-01-22T06:48:39.182Z,0.28
2019-01-22T06:50:00.336Z,0.27
2019-01-22T06:51:21.049Z,0.22
2019-01-22T06:52:42.297Z,0.22
2019-01-22T06:53:57.081Z,0.23
2019-01-22T06:55:09.368Z,0.26
2019-01-22T06:56:39.841Z,0.31
2019-01-22T06:58:13.028Z,0.34
2019-01-22T06:59:22.357Z,0.35
2019-01-22T07:00:31.587Z,0.36
2019-01-22T07:01:46.532Z,0.37
2019-01-22T07:02:55.929Z,0.39
2019-01-22T07:04:02.582Z,0.42
2019-01-22T07:05:11.615Z,0.42
2019-01-22T07:06:34.801Z,0.35
2019-01-22T07:07:52.770Z,0.28
2019-01-22T07:09:21.555Z,0.21
2019-01-22T07:10:33.312Z,0.26
2019-01-22T07:11:42.298Z,0.29
2019-01-22T07:12:48.831Z,0.29
2019-01-22T07:14:00.982Z,0.31
2019-01-22T07:15:19.202Z,0.31
2019-01-22T07:16:28.239Z,0.36
2019-01-22T07:17:37.516Z,0.31
2019-01-22T07:18:55.965Z,0.26
2019-01-22T07:20:14.208Z,0.26
2019-01-22T07:21:32.559Z,0.24
2019-01-22T07:22:39.066Z,0.24
2019-01-22T07:23:45.638Z,0.26
2019-01-22T07:24:54.570Z,0.30
2019-01-22T07:26:09.864Z,0.31
2019-01-22T07:27:19.196Z,0.33
2019-01-22T07:28:25.769Z,0.30
2019-01-22T07:29:44.169Z,0.32
2019-01-22T07:31:06.057Z,0.33
2019-01-22T07:32:27.794Z,0.36
2019-01-22T07:33:52.020Z,0.40
2019-01-22T07:35:15.827Z,0.45
2019-01-22T07:36:47.723Z,0.42
2019-01-22T07:37:54.224Z,0.43
2019-01-22T07:39:09.077Z,0.44
2019-01-22T07:40:36.283Z,0.46
2019-01-22T07:41:57.460Z,0.48
2019-01-22T07:43:21.600Z,0.50
2019-01-22T07:44:33.979Z,0.53
2019-01-22T07:45:59.852Z,0.54
2019-01-22T07:47:25.642Z,0.54
2019-01-22T07:48:32.338Z,0.54
2019-01-22T07:49:41.845Z,0.56
2019-01-22T07:50:50.935Z,0.56
2019-01-22T07:52:06.167Z,0.54
2019-01-22T07:53:30.206Z,0.56
2019-01-22T07:55:03.554Z,0.52
2019-01-22T07:56:21.735Z,0.47
2019-01-22T07:57:39.873Z,0.43
2019-01-22T07:59:10.188Z,0.36
2019-01-22T08:00:19.397Z,0.34
2019-01-22T08:01:43.914Z,0.37
2019-01-22T08:02:59.284Z,0.36
2019-01-22T08:04:13.087Z,0.35
2019-01-22T08:05:30.007Z,0.34
2019-01-22T08:07:01.760Z,0.35
2019-01-22T08:08:27.846Z,0.40
2019-01-22T08:09:51.973Z,0.42
2019-01-22T08:11:01.270Z,0.45
2019-01-22T08:12:26.523Z,0.47
2019-01-22T08:13:33.014Z,0.42
2019-01-22T08:14:45.394Z,0.42
2019-01-22T08:16:00.696Z,0.36
2019-01-22T08:17:18.926Z,0.34
2019-01-22T08:18:30.652Z,0.35
2019-01-22T08:19:57.869Z,0.34
2019-01-22T08:21:06.860Z,0.33
2019-01-22T08:22:24.964Z,0.35
2019-01-22T08:23:55.078Z,0.36
2019-01-22T08:25:13.581Z,0.38
2019-01-22T08:26:37.917Z,0.34
2019-01-22T08:28:09.337Z,0.36
2019-01-22T08:29:21.140Z,0.39
2019-01-22T08:30:45.309Z,0.35
2019-01-22T08:32:10.817Z,0.29
2019-01-22T08:33:17.309Z,0.16
2019-01-22T08:34:54.930Z,0.08
2019-01-22T08:36:09.778Z,0.14
2019-01-22T08:37:37.108Z,0.15
2019-01-22T08:38:43.606Z,0.17
2019-01-22T08:40:01.604Z,0.09
2019-01-22T08:41:26.131Z,0.06
2019-01-22T08:42:35.539Z,0.05
2019-01-22T08:44:08.832Z,0.17
2019-01-22T08:45:27.338Z,0.25
2019-01-22T08:46:36.612Z,0.30
2019-01-22T08:48:00.816Z,0.26
2019-01-22T08:49:10.164Z,0.14
2019-01-22T08:50:16.640Z,0.08
2019-01-22T08:51:42.177Z,-0.01
2019-01-22T08:52:57.424Z,0.04
2019-01-22T08:54:32.071Z,0.09
2019-01-22T08:55:38.560Z,0.22
2019-01-22T08:57:01.153Z,0.34
2019-01-22T08:58:18.790Z,0.37
2019-01-22T08:59:25.309Z,0.34
2019-01-22T09:00:37.224Z,0.31
2019-01-22T09:01:51.626Z,0.30
2019-01-22T09:03:17.266Z,0.29
2019-01-22T09:04:32.641Z,0.30
2019-01-22T09:05:39.133Z,0.38
2019-01-22T09:07:12.496Z,0.43
2019-01-22T09:08:18.979Z,0.48
2019-01-22T09:09:28.226Z,0.56
2019-01-22T09:11:01.879Z,0.58
2019-01-22T09:12:14.423Z,0.61
2019-01-22T09:13:29.562Z,0.60
2019-01-22T09:14:38.994Z,0.59
2019-01-22T09:16:01.786Z,0.59
2019-01-22T09:17:24.854Z,0.56
2019-01-22T09:18:40.752Z,0.56
2019-01-22T09:19:53.107Z,0.56
2019-01-22T09:21:05.561Z,0.59
2019-01-22T09:22:34.357Z,0.62
2019-01-22T09:23:46.627Z,0.62
2019-01-22T09:24:59.002Z,0.64
2019-01-22T09:26:17.082Z,0.55
2019-01-22T09:27:29.323Z,0.51
2019-01-22T09:28:44.655Z,0.54
2019-01-22T09:30:20.795Z,0.56
2019-01-22T09:31:27.277Z,0.60
2019-01-22T09:32:48.353Z,0.60
2019-01-22T09:33:54.868Z,0.58
2019-01-22T09:35:17.346Z,0.48
2019-01-22T09:36:47.363Z,0.52
2019-01-22T09:37:50.939Z,0.56
2019-01-22T09:38:54.468Z,0.56
2019-01-22T09:39:57.971Z,0.47
2019-01-22T09:41:01.544Z,0.48
2019-01-22T09:42:05.119Z,0.47
2019-01-22T09:43:08.713Z,0.46
2019-01-22T09:44:12.179Z,0.46
2019-01-22T09:45:15.760Z,0.48
2019-01-22T09:46:19.221Z,0.50
2019-01-22T09:47:22.658Z,0.50
2019-01-22T09:48:26.169Z,0.53
2019-01-22T09:49:29.711Z,0.55
2019-01-22T09:50:34.236Z,0.54
2019-01-22T09:51:37.813Z,0.51
2019-01-22T09:52:41.257Z,0.52
2019-01-22T09:53:44.687Z,0.51
2019-01-22T09:54:48.213Z,0.52
2019-01-22T09:55:51.675Z,0.53
2019-01-22T09:56:55.191Z,0.52
2019-01-22T09:57:58.634Z,0.55
2019-01-22T09:59:02.197Z,0.57
2019-01-22T10:00:08.730Z,0.58
2019-01-22T10:01:12.246Z,0.58
2019-01-22T10:02:15.755Z,0.61
2019-01-22T10:03:19.340Z,0.63
2019-01-22T10:04:22.819Z,0.68
2019-01-22T10:05:26.321Z,0.71
2019-01-22T10:06:29.890Z,0.69
2019-01-22T10:07:33.414Z,0.68
2019-01-22T10:08:36.945Z,0.65
2019-01-22T10:09:40.421Z,0.59
2019-01-22T10:10:43.956Z,0.58
2019-01-22T10:11:47.523Z,0.53
2019-01-22T10:12:51.100Z,0.51
2019-01-22T10:13:54.824Z,0.53
2019-01-22T10:14:58.388Z,0.57
2019-01-22T10:16:02.013Z,0.61
2019-01-22T10:17:05.517Z,0.64
2019-01-22T10:18:09.120Z,0.64
2019-01-22T10:19:12.644Z,0.65
2019-01-22T10:20:23.699Z,0.66
2019-01-22T10:21:27.277Z,0.64
2019-01-22T10:22:30.778Z,0.68
2019-01-22T10:23:34.359Z,0.40
2019-01-22T10:24:37.906Z,0.31
2019-01-22T10:25:41.410Z,0.39
2019-01-22T10:26:44.921Z,0.42
2019-01-22T10:27:48.583Z,0.27
2019-01-22T10:28:52.214Z,0.27
2019-01-22T10:29:55.745Z,0.35
2019-01-22T10:30:59.239Z,0.44
2019-01-22T10:32:02.716Z,0.51
2019-01-22T10:33:06.300Z,0.51
2019-01-22T10:34:09.854Z,0.46
2019-01-22T10:35:14.255Z,0.48
2019-01-22T10:36:17.932Z,0.51
2019-01-22T10:37:21.426Z,0.55
2019-01-22T10:38:24.824Z,0.60
2019-01-22T10:39:28.279Z,0.53
2019-01-22T10:40:31.797Z,0.42
2019-01-22T10:41:35.313Z,0.38
2019-01-22T10:42:38.745Z,0.37
2019-01-22T10:43:42.164Z,0.43
2019-01-22T10:44:45.615Z,0.48
2019-01-22T10:45:49.080Z,0.58
2019-01-22T10:46:52.614Z,0.68
2019-01-22T10:47:56.116Z,0.72
2019-01-22T10:48:59.744Z,0.64
2019-01-22T10:50:04.474Z,0.65
2019-01-22T10:51:07.905Z,0.68
2019-01-22T10:52:11.339Z,0.73
2019-01-22T10:53:14.781Z,0.71
2019-01-22T10:54:18.295Z,0.73
2019-01-22T10:55:21.902Z,0.78
2019-01-22T10:56:25.371Z,0.83
2019-01-22T10:57:28.882Z,0.84
2019-01-22T10:58:32.468Z,0.82
2019-01-22T10:59:35.934Z,0.77
2019-01-22T11:00:39.732Z,0.78
2019-01-22T11:01:43.240Z,0.81
2019-01-22T11:02:46.674Z,0.56
2019-01-22T11:03:50.261Z,0.60
2019-01-22T11:04:53.869Z,0.65
2019-01-22T11:05:57.402Z,0.69
2019-01-22T11:07:00.850Z,0.76
2019-01-22T11:08:04.606Z,0.84
2019-01-22T11:09:08.495Z,0.87
2019-01-22T11:10:12.074Z,0.90
2019-01-22T11:11:15.599Z,0.93
2019-01-22T11:12:19.072Z,0.92
2019-01-22T11:13:22.520Z,0.91
2019-01-22T11:14:26.018Z,0.95
2019-01-22T11:15:29.540Z,0.99
2019-01-22T11:16:33.066Z,1.03
2019-01-22T11:17:36.502Z,1.01
2019-01-22T11:18:40.625Z,0.94
2019-01-22T11:19:44.072Z,0.93
2019-01-22T11:20:47.583Z,0.95
2019-01-22T11:21:51.044Z,0.97
2019-01-22T11:22:54.638Z,1.00
2019-01-22T11:23:58.330Z,1.02
2019-01-22T11:25:01.861Z,1.03
2019-01-22T11:26:05.428Z,1.05
2019-01-22T11:27:08.926Z,1.06
2019-01-22T11:28:12.515Z,1.09
2019-01-22T11:29:15.960Z,1.10
2019-01-22T11:30:22.433Z,1.15
2019-01-22T11:31:25.939Z,1.22
2019-01-22T11:32:29.383Z,1.26
2019-01-22T11:33:33.546Z,1.29
2019-01-22T11:34:37.097Z,1.32
2019-01-22T11:35:40.598Z,1.33
2019-01-22T11:36:44.186Z,1.30
2019-01-22T11:37:47.701Z,1.27
2019-01-22T11:38:51.391Z,1.19
2019-01-22T11:39:54.825Z,1.15
2019-01-22T11:40:58.347Z,1.11
2019-01-22T11:42:01.874Z,1.14
2019-01-22T11:43:05.546Z,1.21
2019-01-22T11:44:09.048Z,1.27
2019-01-22T11:45:12.723Z,1.24
2019-01-22T11:46:16.307Z,1.27
2019-01-22T11:47:19.829Z,1.29
2019-01-22T11:48:23.263Z,1.34
2019-01-22T11:49:26.772Z,1.37
2019-01-22T11:50:30.223Z,1.33
2019-01-22T11:51:33.646Z,1.31
2019-01-22T11:52:37.167Z,1.32
2019-01-22T11:53:40.752Z,1.35
2019-01-22T11:54:44.196Z,1.40
2019-01-22T11:55:50.565Z,1.40
2019-01-22T11:56:52.903Z,1.43
2019-01-22T11:57:56.496Z,1.44
2019-01-22T11:59:00.073Z,1.45
2019-01-22T12:00:05.528Z,1.43
2019-01-22T12:01:09.122Z,1.41
2019-01-22T12:02:12.712Z,1.39
2019-01-22T12:03:16.294Z,1.44
2019-01-22T12:04:19.861Z,1.47
2019-01-22T12:05:23.310Z,1.50
2019-01-22T12:06:26.780Z,1.50
2019-01-22T12:07:30.248Z,1.48
2019-01-22T12:08:33.719Z,1.46
2019-01-22T12:09:37.155Z,1.50
2019-01-22T12:10:40.660Z,1.53
2019-01-22T12:11:44.097Z,1.51
2019-01-22T12:12:47.600Z,1.44
2019-01-22T12:13:54.058Z,1.46
2019-01-22T12:14:56.301Z,1.46
2019-01-22T12:15:59.816Z,1.50
2019-01-22T12:17:03.254Z,1.53
2019-01-22T12:18:06.844Z,1.53
2019-01-22T12:19:10.383Z,1.60
2019-01-22T12:20:19.568Z,1.65
2019-01-22T12:21:23.080Z,1.69
2019-01-22T12:22:26.579Z,1.72
2019-01-22T12:23:30.102Z,1.74
2019-01-22T12:24:33.607Z,1.76
2019-01-22T12:25:37.025Z,1.78
2019-01-22T12:26:40.485Z,1.79
2019-01-22T12:27:43.996Z,1.81
2019-01-22T12:28:47.495Z,1.83
2019-01-22T12:29:50.951Z,1.86
2019-01-22T12:30:54.657Z,1.83
2019-01-22T12:31:58.170Z,1.84
2019-01-22T12:33:01.672Z,1.87
2019-01-22T12:34:05.261Z,1.91
2019-01-22T12:35:11.333Z,1.87
2019-01-22T12:36:14.847Z,1.79
2019-01-22T12:37:18.368Z,1.81
2019-01-22T12:38:21.793Z,1.82
2019-01-22T12:39:25.256Z,1.85
2019-01-22T12:40:29.143Z,1.83
2019-01-22T12:41:32.582Z,1.69
2019-01-22T12:42:36.084Z,1.67
2019-01-22T12:43:39.595Z,1.59
2019-01-22T12:44:43.108Z,1.62
2019-01-22T12:45:46.601Z,1.58
2019-01-22T12:46:50.071Z,1.49
2019-01-22T12:47:53.601Z,1.47
2019-01-22T12:48:57.045Z,1.56
2019-01-22T12:50:00.496Z,1.61
2019-01-22T12:51:04.071Z,1.67
2019-01-22T12:52:07.579Z,1.73
2019-01-22T12:53:11.192Z,1.76
2019-01-22T12:54:14.701Z,1.84
2019-01-22T12:55:18.407Z,1.93
2019-01-22T12:56:21.839Z,2.03
2019-01-22T12:57:25.279Z,2.24
2019-01-22T12:58:28.716Z,2.31
2019-01-22T12:59:32.246Z,2.27
2019-01-22T13:00:37.788Z,2.16
2019-01-22T13:01:41.214Z,2.05
2019-01-22T13:02:44.723Z,2.12
2019-01-22T13:03:48.184Z,2.21
2019-01-22T13:04:51.682Z,2.29
2019-01-22T13:05:56.162Z,2.26
2019-01-22T13:06:59.730Z,2.19
2019-01-22T13:08:03.311Z,2.12
2019-01-22T13:09:08.002Z,2.11
2019-01-22T13:10:11.571Z,2.17
2019-01-22T13:11:15.072Z,2.15
2019-01-22T13:12:18.510Z,2.30
2019-01-22T13:13:22.009Z,2.40
2019-01-22T13:14:25.466Z,2.52
2019-01-22T13:15:28.981Z,2.62
2019-01-22T13:16:32.526Z,2.76
2019-01-22T13:17:36.041Z,2.77
2019-01-22T13:18:39.538Z,2.78
2019-01-22T13:19:42.999Z,2.68
2019-01-22T13:20:46.653Z,2.65
2019-01-22T13:21:50.084Z,2.66
2019-01-22T13:22:53.513Z,2.61
2019-01-22T13:23:57.018Z,2.53
2019-01-22T13:25:00.474Z,2.62
2019-01-22T13:26:04.055Z,2.68
2019-01-22T13:27:07.487Z,2.73
2019-01-22T13:28:11.088Z,2.74
2019-01-22T13:29:14.611Z,2.70
2019-01-22T13:30:24.858Z,2.75
2019-01-22T13:31:28.335Z,2.73
2019-01-22T13:32:31.837Z,2.69
2019-01-22T13:33:35.341Z,2.58
2019-01-22T13:34:38.792Z,2.62
2019-01-22T13:35:42.363Z,2.63
2019-01-22T13:36:45.798Z,2.58
2019-01-22T13:37:49.486Z,2.55
2019-01-22T13:38:52.923Z,2.50
2019-01-22T13:39:56.396Z,2.46
2019-01-22T13:40:59.831Z,2.41
2019-01-22T13:42:03.321Z,2.40
2019-01-22T13:43:06.899Z,2.38
2019-01-22T13:44:10.333Z,2.38
2019-01-22T13:45:28.554Z,2.39
2019-01-22T13:46:31.984Z,2.34
2019-01-22T13:47:35.483Z,2.38
2019-01-22T13:48:39.139Z,2.38
2019-01-22T13:49:42.672Z,2.41
2019-01-22T13:50:46.099Z,2.40
2019-01-22T13:51:49.536Z,2.39
2019-01-22T13:52:53.122Z,2.40
2019-01-22T13:53:56.640Z,2.42
2019-01-22T13:55:00.190Z,2.39
2019-01-22T13:56:03.785Z,2.33
2019-01-22T13:57:07.383Z,2.29
2019-01-22T13:58:10.908Z,2.30
2019-01-22T13:59:14.359Z,2.34
2019-01-22T14:00:20.342Z,2.41
2019-01-22T14:01:23.864Z,2.43
2019-01-22T14:02:27.365Z,2.46
2019-01-22T14:03:30.863Z,2.48
2019-01-22T14:04:34.391Z,2.49
2019-01-22T14:05:38.035Z,2.51
2019-01-22T14:06:41.477Z,2.54
2019-01-22T14:07:45.050Z,2.40
2019-01-22T14:08:48.485Z,2.45
2019-01-22T14:09:51.964Z,2.46
2019-01-22T14:10:55.414Z,2.46
2019-01-22T14:11:58.921Z,2.41
2019-01-22T14:13:02.353Z,2.37
2019-01-22T14:14:05.945Z,2.36
2019-01-22T14:15:12.751Z,2.38
2019-01-22T14:16:16.250Z,2.41
2019-01-22T14:17:19.729Z,2.37
2019-01-22T14:18:23.273Z,2.31
2019-01-22T14:19:26.816Z,2.27
2019-01-22T14:20:30.344Z,2.25
2019-01-22T14:21:33.769Z,2.21
2019-01-22T14:22:37.204Z,2.08
2019-01-22T14:23:40.653Z,2.12
2019-01-22T14:24:44.181Z,2.10
2019-01-22T14:25:47.692Z,2.09
2019-01-22T14:26:52.407Z,2.00
2019-01-22T14:27:55.926Z,1.96
2019-01-22T14:28:59.363Z,2.00
2019-01-22T14:30:02.955Z,2.07
2019-01-22T14:31:06.543Z,2.11
2019-01-22T14:32:10.139Z,2.12
2019-01-22T14:33:13.595Z,2.07
2019-01-22T14:34:17.061Z,2.07
2019-01-22T14:35:20.666Z,2.00
2019-01-22T14:36:24.162Z,1.92
2019-01-22T14:37:27.678Z,1.94
2019-01-22T14:38:31.119Z,1.87
2019-01-22T14:39:34.572Z,1.70
2019-01-22T14:40:38.148Z,1.37
2019-01-22T14:41:41.607Z,1.28
2019-01-22T14:42:45.172Z,1.26
2019-01-22T14:43:48.675Z,1.35
2019-01-22T14:44:52.107Z,1.31
2019-01-22T14:45:55.550Z,1.32
2019-01-22T14:46:59.055Z,1.31
2019-01-22T14:48:02.495Z,1.31
2019-01-22T14:49:06.017Z,1.33
2019-01-22T14:50:12.771Z,1.36
2019-01-22T14:51:16.262Z,1.31
2019-01-22T14:52:19.779Z,1.36
2019-01-22T14:53:23.290Z,1.36
2019-01-22T14:54:26.735Z,1.44
2019-01-22T14:55:30.194Z,1.48
2019-01-22T14:56:33.639Z,1.50
2019-01-22T14:57:37.199Z,1.49
2019-01-22T14:58:40.705Z,1.45
2019-01-22T14:59:44.179Z,1.35
2019-01-22T15:00:47.706Z,1.28
2019-01-22T15:01:51.203Z,1.16
2019-01-22T15:02:55.789Z,1.22
2019-01-22T15:03:59.224Z,1.29
2019-01-22T15:05:02.743Z,1.31
2019-01-22T15:06:13.849Z,1.33
2019-01-22T15:07:16.802Z,1.39
2019-01-22T15:08:20.246Z,1.46
2019-01-22T15:09:23.674Z,1.47
2019-01-22T15:10:28.132Z,1.47
2019-01-22T15:11:31.576Z,1.49
2019-01-22T15:12:35.153Z,1.47
2019-01-22T15:13:38.622Z,1.45
2019-01-22T15:14:42.067Z,1.43
2019-01-22T15:15:45.527Z,1.39
2019-01-22T15:16:48.988Z,1.42
2019-01-22T15:17:52.527Z,1.46
2019-01-22T15:18:55.962Z,1.53
2019-01-22T15:19:59.478Z,1.56